sensor_id;sensor_type;location;lat;lon;timestamp;P1;durP1;ratioP1;P2;durP2;ratioP2
21733;SDS011;11029;47.820;10.534;2023-07-02T00:00:05;1.40;;;1.30;;
21733;SDS011;11029;47.820;10.534;2023-07-02T00:02:36;1.23;;;1.13;;
21733;SDS011;11029;47.820;10.534;2023-07-02T00:05:04;1.65;;;1.55;;
21733;SDS011;11029;47.820;10.534;2023-07-02T00:07:31;2.00;;;1.45;;
21733;SDS011;11029;47.820;10.534;2023-07-02T00:09:59;2.22;;;1.42;;
21733;SDS011;11029;47.820;10.534;2023-07-02T00:12:26;1.45;;;1.35;;
21733;SDS011;11029;47.820;10.534;2023-07-02T00:14:52;2.25;;;1.70;;
21733;SDS011;11029;47.820;10.534;2023-07-02T00:17:20;1.48;;;1.38;;
21733;SDS011;11029;47.820;10.534;2023-07-02T00:19:47;1.58;;;1.48;;
21733;SDS011;11029;47.820;10.534;2023-07-02T00:22:17;1.60;;;1.50;;
21733;SDS011;11029;47.820;10.534;2023-07-02T00:24:44;1.75;;;1.65;;
21733;SDS011;11029;47.820;10.534;2023-07-02T00:27:11;1.58;;;1.48;;
21733;SDS011;11029;47.820;10.534;2023-07-02T00:29:38;1.60;;;1.50;;
21733;SDS011;11029;47.820;10.534;2023-07-02T00:32:05;1.77;;;1.50;;
21733;SDS011;11029;47.820;10.534;2023-07-02T00:34:32;2.55;;;1.40;;
21733;SDS011;11029;47.820;10.534;2023-07-02T00:36:59;1.50;;;1.30;;
21733;SDS011;11029;47.820;10.534;2023-07-02T00:39:26;1.13;;;1.02;;
21733;SDS011;11029;47.820;10.534;2023-07-02T00:41:53;1.20;;;1.20;;
21733;SDS011;11029;47.820;10.534;2023-07-02T00:44:21;1.20;;;1.10;;
21733;SDS011;11029;47.820;10.534;2023-07-02T00:46:49;1.00;;;1.00;;
21733;SDS011;11029;47.820;10.534;2023-07-02T00:49:17;1.73;;;1.10;;
21733;SDS011;11029;47.820;10.534;2023-07-02T00:51:45;1.48;;;1.38;;
21733;SDS011;11029;47.820;10.534;2023-07-02T00:54:11;2.20;;;1.50;;
21733;SDS011;11029;47.820;10.534;2023-07-02T00:56:38;1.83;;;1.50;;
21733;SDS011;11029;47.820;10.534;2023-07-02T00:59:05;1.35;;;1.25;;
21733;SDS011;11029;47.820;10.534;2023-07-02T01:01:36;1.50;;;1.40;;
21733;SDS011;11029;47.820;10.534;2023-07-02T01:04:05;1.70;;;1.37;;
21733;SDS011;11029;47.820;10.534;2023-07-02T01:06:38;1.55;;;1.23;;
21733;SDS011;11029;47.820;10.534;2023-07-02T01:09:09;2.42;;;1.30;;
21733;SDS011;11029;47.820;10.534;2023-07-02T01:12:12;3.05;;;1.58;;
21733;SDS011;11029;47.820;10.534;2023-07-02T01:14:36;2.35;;;1.60;;
21733;SDS011;11029;47.820;10.534;2023-07-02T01:17:06;3.10;;;1.42;;
21733;SDS011;11029;47.820;10.534;2023-07-02T01:22:21;1.33;;;1.23;;
21733;SDS011;11029;47.820;10.534;2023-07-02T01:24:53;1.60;;;1.50;;
21733;SDS011;11029;47.820;10.534;2023-07-02T01:27:21;1.83;;;1.15;;
21733;SDS011;11029;47.820;10.534;2023-07-02T01:29:51;1.58;;;1.48;;
21733;SDS011;11029;47.820;10.534;2023-07-02T01:32:18;1.90;;;1.33;;
21733;SDS011;11029;47.820;10.534;2023-07-02T01:34:46;1.88;;;1.77;;
21733;SDS011;11029;47.820;10.534;2023-07-02T01:37:16;2.00;;;1.80;;
21733;SDS011;11029;47.820;10.534;2023-07-02T01:39:43;2.00;;;1.80;;
21733;SDS011;11029;47.820;10.534;2023-07-02T01:42:11;2.22;;;1.85;;
21733;SDS011;11029;47.820;10.534;2023-07-02T01:44:40;2.20;;;1.90;;
21733;SDS011;11029;47.820;10.534;2023-07-02T01:47:08;1.77;;;1.67;;
21733;SDS011;11029;47.820;10.534;2023-07-02T01:49:36;2.17;;;1.98;;
21733;SDS011;11029;47.820;10.534;2023-07-02T01:52:04;2.10;;;2.00;;
21733;SDS011;11029;47.820;10.534;2023-07-02T01:54:32;3.08;;;2.00;;
21733;SDS011;11029;47.820;10.534;2023-07-02T01:57:00;1.70;;;1.60;;
21733;SDS011;11029;47.820;10.534;2023-07-02T01:59:28;2.08;;;1.80;;
21733;SDS011;11029;47.820;10.534;2023-07-02T02:01:55;1.65;;;1.55;;
21733;SDS011;11029;47.820;10.534;2023-07-02T02:04:22;2.92;;;2.10;;
21733;SDS011;11029;47.820;10.534;2023-07-02T02:06:49;2.00;;;1.88;;
21733;SDS011;11029;47.820;10.534;2023-07-02T02:09:16;2.10;;;1.90;;
21733;SDS011;11029;47.820;10.534;2023-07-02T02:11:44;2.20;;;1.98;;
21733;SDS011;11029;47.820;10.534;2023-07-02T02:14:13;2.67;;;2.47;;
21733;SDS011;11029;47.820;10.534;2023-07-02T02:16:40;2.60;;;2.40;;
21733;SDS011;11029;47.820;10.534;2023-07-02T02:19:07;3.70;;;3.05;;
21733;SDS011;11029;47.820;10.534;2023-07-02T02:21:35;3.60;;;3.30;;
21733;SDS011;11029;47.820;10.534;2023-07-02T02:24:02;3.13;;;2.83;;
21733;SDS011;11029;47.820;10.534;2023-07-02T02:26:28;3.50;;;3.17;;
21733;SDS011;11029;47.820;10.534;2023-07-02T02:28:55;3.25;;;2.95;;
21733;SDS011;11029;47.820;10.534;2023-07-02T02:31:22;3.45;;;3.15;;
21733;SDS011;11029;47.820;10.534;2023-07-02T02:33:49;4.45;;;3.58;;
21733;SDS011;11029;47.820;10.534;2023-07-02T02:36:16;4.50;;;3.50;;
21733;SDS011;11029;47.820;10.534;2023-07-02T02:38:43;4.07;;;3.58;;
21733;SDS011;11029;47.820;10.534;2023-07-02T02:41:10;4.13;;;3.40;;
21733;SDS011;11029;47.820;10.534;2023-07-02T02:43:41;3.60;;;3.30;;
21733;SDS011;11029;47.820;10.534;2023-07-02T02:46:11;3.85;;;3.47;;
21733;SDS011;11029;47.820;10.534;2023-07-02T02:48:38;3.67;;;3.30;;
21733;SDS011;11029;47.820;10.534;2023-07-02T02:51:05;3.42;;;3.08;;
21733;SDS011;11029;47.820;10.534;2023-07-02T02:53:32;3.38;;;2.97;;
21733;SDS011;11029;47.820;10.534;2023-07-02T02:55:59;5.88;;;3.65;;
21733;SDS011;11029;47.820;10.534;2023-07-02T02:58:26;3.83;;;3.35;;
21733;SDS011;11029;47.820;10.534;2023-07-02T03:00:54;3.40;;;3.10;;
21733;SDS011;11029;47.820;10.534;2023-07-02T03:03:21;4.00;;;3.47;;
21733;SDS011;11029;47.820;10.534;2023-07-02T03:05:50;5.35;;;3.22;;
21733;SDS011;11029;47.820;10.534;2023-07-02T03:08:17;4.15;;;3.53;;
21733;SDS011;11029;47.820;10.534;2023-07-02T03:10:44;4.68;;;3.30;;
21733;SDS011;11029;47.820;10.534;2023-07-02T03:13:11;3.97;;;3.58;;
21733;SDS011;11029;47.820;10.534;2023-07-02T03:15:38;5.53;;;3.40;;
21733;SDS011;11029;47.820;10.534;2023-07-02T03:18:05;5.30;;;3.95;;
21733;SDS011;11029;47.820;10.534;2023-07-02T03:20:32;4.00;;;3.60;;
21733;SDS011;11029;47.820;10.534;2023-07-02T03:22:59;4.75;;;3.55;;
21733;SDS011;11029;47.820;10.534;2023-07-02T03:25:26;3.90;;;3.50;;
21733;SDS011;11029;47.820;10.534;2023-07-02T03:27:53;3.95;;;3.55;;
21733;SDS011;11029;47.820;10.534;2023-07-02T03:30:20;4.18;;;3.65;;
21733;SDS011;11029;47.820;10.534;2023-07-02T03:32:47;4.38;;;3.85;;
21733;SDS011;11029;47.820;10.534;2023-07-02T03:35:14;4.35;;;3.67;;
21733;SDS011;11029;47.820;10.534;2023-07-02T03:37:41;4.10;;;3.70;;
21733;SDS011;11029;47.820;10.534;2023-07-02T03:40:10;4.80;;;3.17;;
21733;SDS011;11029;47.820;10.534;2023-07-02T03:42:39;5.47;;;3.42;;
21733;SDS011;11029;47.820;10.534;2023-07-02T03:45:06;4.05;;;3.65;;
21733;SDS011;11029;47.820;10.534;2023-07-02T03:47:33;5.55;;;3.30;;
21733;SDS011;11029;47.820;10.534;2023-07-02T03:50:00;5.07;;;3.45;;
21733;SDS011;11029;47.820;10.534;2023-07-02T03:52:27;3.53;;;3.22;;
21733;SDS011;11029;47.820;10.534;2023-07-02T03:54:54;3.45;;;2.97;;
21733;SDS011;11029;47.820;10.534;2023-07-02T03:57:21;3.15;;;2.78;;
21733;SDS011;11029;47.820;10.534;2023-07-02T03:59:47;4.45;;;3.00;;
21733;SDS011;11029;47.820;10.534;2023-07-02T04:02:14;3.63;;;3.10;;
21733;SDS011;11029;47.820;10.534;2023-07-02T04:04:41;4.50;;;2.92;;
21733;SDS011;11029;47.820;10.534;2023-07-02T04:07:08;3.40;;;3.08;;
21733;SDS011;11029;47.820;10.534;2023-07-02T04:09:35;3.58;;;3.28;;
21733;SDS011;11029;47.820;10.534;2023-07-02T04:12:01;4.82;;;4.18;;
21733;SDS011;11029;47.820;10.534;2023-07-02T04:14:28;4.25;;;3.85;;
21733;SDS011;11029;47.820;10.534;2023-07-02T04:16:55;3.30;;;3.00;;
21733;SDS011;11029;47.820;10.534;2023-07-02T04:19:22;2.67;;;2.47;;
21733;SDS011;11029;47.820;10.534;2023-07-02T04:21:49;3.08;;;2.78;;
21733;SDS011;11029;47.820;10.534;2023-07-02T04:24:16;5.13;;;2.53;;
21733;SDS011;11029;47.820;10.534;2023-07-02T04:26:43;2.45;;;2.25;;
21733;SDS011;11029;47.820;10.534;2023-07-02T04:29:30;2.38;;;2.17;;
21733;SDS011;11029;47.820;10.534;2023-07-02T04:31:57;2.72;;;2.42;;
21733;SDS011;11029;47.820;10.534;2023-07-02T04:34:24;2.28;;;2.10;;
21733;SDS011;11029;47.820;10.534;2023-07-02T04:36:51;2.40;;;2.20;;
21733;SDS011;11029;47.820;10.534;2023-07-02T04:39:19;2.30;;;2.10;;
21733;SDS011;11029;47.820;10.534;2023-07-02T04:41:46;2.10;;;1.90;;
21733;SDS011;11029;47.820;10.534;2023-07-02T04:44:13;2.20;;;2.00;;
21733;SDS011;11029;47.820;10.534;2023-07-02T04:46:39;2.03;;;1.90;;
21733;SDS011;11029;47.820;10.534;2023-07-02T04:49:06;3.17;;;1.80;;
21733;SDS011;11029;47.820;10.534;2023-07-02T04:51:33;2.78;;;1.80;;
21733;SDS011;11029;47.820;10.534;2023-07-02T04:54:00;1.98;;;1.77;;
21733;SDS011;11029;47.820;10.534;2023-07-02T04:56:26;2.45;;;1.70;;
21733;SDS011;11029;47.820;10.534;2023-07-02T04:58:53;1.70;;;1.60;;
21733;SDS011;11029;47.820;10.534;2023-07-02T05:01:20;2.50;;;2.00;;
21733;SDS011;11029;47.820;10.534;2023-07-02T05:03:47;2.30;;;2.10;;
21733;SDS011;11029;47.820;10.534;2023-07-02T05:06:13;1.60;;;1.50;;
21733;SDS011;11029;47.820;10.534;2023-07-02T05:08:40;3.30;;;1.63;;
21733;SDS011;11029;47.820;10.534;2023-07-02T05:11:08;1.50;;;1.30;;
21733;SDS011;11029;47.820;10.534;2023-07-02T05:13:35;1.13;;;1.02;;
21733;SDS011;11029;47.820;10.534;2023-07-02T05:16:02;1.30;;;1.20;;
21733;SDS011;11029;47.820;10.534;2023-07-02T05:18:29;1.05;;;1.00;;
21733;SDS011;11029;47.820;10.534;2023-07-02T05:20:55;1.00;;;0.90;;
21733;SDS011;11029;47.820;10.534;2023-07-02T05:23:22;0.90;;;0.90;;
21733;SDS011;11029;47.820;10.534;2023-07-02T05:25:49;3.30;;;0.90;;
21733;SDS011;11029;47.820;10.534;2023-07-02T05:28:16;0.80;;;0.75;;
21733;SDS011;11029;47.820;10.534;2023-07-02T05:30:42;0.73;;;0.73;;
21733;SDS011;11029;47.820;10.534;2023-07-02T05:33:09;1.05;;;0.98;;
21733;SDS011;11029;47.820;10.534;2023-07-02T05:35:36;1.20;;;0.93;;
21733;SDS011;11029;47.820;10.534;2023-07-02T05:38:03;0.90;;;0.90;;
21733;SDS011;11029;47.820;10.534;2023-07-02T05:40:30;1.08;;;0.98;;
21733;SDS011;11029;47.820;10.534;2023-07-02T05:42:57;2.03;;;1.13;;
21733;SDS011;11029;47.820;10.534;2023-07-02T05:45:24;3.58;;;1.40;;
21733;SDS011;11029;47.820;10.534;2023-07-02T05:47:50;1.83;;;1.60;;
21733;SDS011;11029;47.820;10.534;2023-07-02T05:50:18;2.30;;;1.80;;
21733;SDS011;11029;47.820;10.534;2023-07-02T05:52:44;2.42;;;1.90;;
21733;SDS011;11029;47.820;10.534;2023-07-02T05:55:11;2.58;;;2.30;;
21733;SDS011;11029;47.820;10.534;2023-07-02T05:57:38;2.88;;;2.58;;
21733;SDS011;11029;47.820;10.534;2023-07-02T06:00:05;3.28;;;2.47;;
21733;SDS011;11029;47.820;10.534;2023-07-02T06:02:37;3.20;;;2.88;;
21733;SDS011;11029;47.820;10.534;2023-07-02T06:05:04;2.50;;;2.30;;
21733;SDS011;11029;47.820;10.534;2023-07-02T06:07:31;3.30;;;2.80;;
21733;SDS011;11029;47.820;10.534;2023-07-02T06:09:58;4.55;;;2.75;;
21733;SDS011;11029;47.820;10.534;2023-07-02T06:12:25;3.38;;;2.90;;
21733;SDS011;11029;47.820;10.534;2023-07-02T06:14:51;3.22;;;2.65;;
21733;SDS011;11029;47.820;10.534;2023-07-02T06:17:18;3.78;;;3.22;;
21733;SDS011;11029;47.820;10.534;2023-07-02T06:19:46;3.35;;;3.05;;
21733;SDS011;11029;47.820;10.534;2023-07-02T06:22:13;4.07;;;3.15;;
21733;SDS011;11029;47.820;10.534;2023-07-02T06:24:40;5.30;;;3.80;;
21733;SDS011;11029;47.820;10.534;2023-07-02T06:27:07;5.55;;;4.00;;
21733;SDS011;11029;47.820;10.534;2023-07-02T06:29:34;4.72;;;4.22;;
21733;SDS011;11029;47.820;10.534;2023-07-02T06:32:00;5.88;;;4.22;;
21733;SDS011;11029;47.820;10.534;2023-07-02T06:34:27;5.50;;;4.88;;
21733;SDS011;11029;47.820;10.534;2023-07-02T06:36:54;9.65;;;4.75;;
21733;SDS011;11029;47.820;10.534;2023-07-02T06:39:21;8.10;;;4.35;;
21733;SDS011;11029;47.820;10.534;2023-07-02T06:41:48;5.25;;;4.75;;
21733;SDS011;11029;47.820;10.534;2023-07-02T06:44:16;5.72;;;4.68;;
21733;SDS011;11029;47.820;10.534;2023-07-02T06:46:45;5.57;;;4.70;;
21733;SDS011;11029;47.820;10.534;2023-07-02T06:49:12;11.05;;;4.95;;
21733;SDS011;11029;47.820;10.534;2023-07-02T06:51:39;8.55;;;5.05;;
21733;SDS011;11029;47.820;10.534;2023-07-02T06:54:07;6.90;;;5.20;;
21733;SDS011;11029;47.820;10.534;2023-07-02T06:56:34;8.85;;;5.47;;
21733;SDS011;11029;47.820;10.534;2023-07-02T06:59:01;6.63;;;4.55;;
21733;SDS011;11029;47.820;10.534;2023-07-02T07:01:28;7.47;;;5.22;;
21733;SDS011;11029;47.820;10.534;2023-07-02T07:03:55;8.50;;;5.07;;
21733;SDS011;11029;47.820;10.534;2023-07-02T07:06:22;6.65;;;5.20;;
21733;SDS011;11029;47.820;10.534;2023-07-02T07:08:48;10.50;;;5.57;;
21733;SDS011;11029;47.820;10.534;2023-07-02T07:11:15;7.47;;;5.40;;
21733;SDS011;11029;47.820;10.534;2023-07-02T07:13:42;10.68;;;5.85;;
21733;SDS011;11029;47.820;10.534;2023-07-02T07:16:10;8.38;;;6.05;;
21733;SDS011;11029;47.820;10.534;2023-07-02T07:18:37;9.18;;;5.70;;
21733;SDS011;11029;47.820;10.534;2023-07-02T07:21:04;10.77;;;6.30;;
21733;SDS011;11029;47.820;10.534;2023-07-02T07:23:31;9.95;;;6.47;;
21733;SDS011;11029;47.820;10.534;2023-07-02T07:25:57;9.85;;;6.25;;
21733;SDS011;11029;47.820;10.534;2023-07-02T07:28:24;11.38;;;6.93;;
21733;SDS011;11029;47.820;10.534;2023-07-02T07:30:51;13.15;;;7.30;;
21733;SDS011;11029;47.820;10.534;2023-07-02T07:33:18;11.25;;;6.88;;
21733;SDS011;11029;47.820;10.534;2023-07-02T07:35:45;12.15;;;7.50;;
21733;SDS011;11029;47.820;10.534;2023-07-02T07:38:15;13.20;;;8.23;;
21733;SDS011;11029;47.820;10.534;2023-07-02T07:40:42;13.57;;;7.68;;
21733;SDS011;11029;47.820;10.534;2023-07-02T07:43:10;14.75;;;7.97;;
21733;SDS011;11029;47.820;10.534;2023-07-02T07:45:37;13.93;;;8.55;;
21733;SDS011;11029;47.820;10.534;2023-07-02T07:48:06;16.50;;;8.85;;
21733;SDS011;11029;47.820;10.534;2023-07-02T07:50:33;15.20;;;9.35;;
21733;SDS011;11029;47.820;10.534;2023-07-02T07:53:00;14.70;;;8.20;;
21733;SDS011;11029;47.820;10.534;2023-07-02T07:55:27;13.63;;;7.90;;
21733;SDS011;11029;47.820;10.534;2023-07-02T07:57:54;14.57;;;9.63;;
21733;SDS011;11029;47.820;10.534;2023-07-02T08:00:20;15.70;;;9.30;;
21733;SDS011;11029;47.820;10.534;2023-07-02T08:02:47;17.25;;;10.07;;
21733;SDS011;11029;47.820;10.534;2023-07-02T08:05:14;14.25;;;9.85;;
21733;SDS011;11029;47.820;10.534;2023-07-02T08:07:41;13.23;;;8.13;;
21733;SDS011;11029;47.820;10.534;2023-07-02T08:10:08;14.65;;;9.50;;
21733;SDS011;11029;47.820;10.534;2023-07-02T08:12:35;15.15;;;10.25;;
21733;SDS011;11029;47.820;10.534;2023-07-02T08:15:02;18.73;;;10.20;;
21733;SDS011;11029;47.820;10.534;2023-07-02T08:17:29;17.13;;;10.27;;
21733;SDS011;11029;47.820;10.534;2023-07-02T08:19:57;17.17;;;10.27;;
21733;SDS011;11029;47.820;10.534;2023-07-02T08:22:24;19.10;;;10.98;;
21733;SDS011;11029;47.820;10.534;2023-07-02T08:24:51;17.80;;;10.38;;
21733;SDS011;11029;47.820;10.534;2023-07-02T08:27:17;20.10;;;10.75;;
21733;SDS011;11029;47.820;10.534;2023-07-02T08:29:47;21.63;;;11.30;;
21733;SDS011;11029;47.820;10.534;2023-07-02T08:32:14;19.77;;;10.88;;
21733;SDS011;11029;47.820;10.534;2023-07-02T08:34:41;23.83;;;11.80;;
21733;SDS011;11029;47.820;10.534;2023-07-02T08:37:08;19.75;;;11.93;;
21733;SDS011;11029;47.820;10.534;2023-07-02T08:39:36;20.73;;;11.93;;
21733;SDS011;11029;47.820;10.534;2023-07-02T08:42:05;21.08;;;11.63;;
21733;SDS011;11029;47.820;10.534;2023-07-02T08:44:33;20.90;;;11.75;;
21733;SDS011;11029;47.820;10.534;2023-07-02T08:46:59;25.20;;;12.10;;
21733;SDS011;11029;47.820;10.534;2023-07-02T08:49:27;23.70;;;12.52;;
21733;SDS011;11029;47.820;10.534;2023-07-02T08:51:54;21.05;;;12.70;;
21733;SDS011;11029;47.820;10.534;2023-07-02T08:54:21;19.00;;;11.77;;
21733;SDS011;11029;47.820;10.534;2023-07-02T08:56:48;22.02;;;11.82;;
21733;SDS011;11029;47.820;10.534;2023-07-02T08:59:14;19.95;;;11.40;;
21733;SDS011;11029;47.820;10.534;2023-07-02T09:01:45;21.20;;;12.25;;
21733;SDS011;11029;47.820;10.534;2023-07-02T09:04:19;21.02;;;12.38;;
21733;SDS011;11029;47.820;10.534;2023-07-02T09:06:47;21.95;;;11.55;;
21733;SDS011;11029;47.820;10.534;2023-07-02T09:09:15;21.70;;;12.73;;
21733;SDS011;11029;47.820;10.534;2023-07-02T09:11:51;23.75;;;12.00;;
21733;SDS011;11029;47.820;10.534;2023-07-02T09:14:27;21.77;;;11.88;;
21733;SDS011;11029;47.820;10.534;2023-07-02T09:17:08;22.50;;;11.90;;
21733;SDS011;11029;47.820;10.534;2023-07-02T09:19:36;22.55;;;12.45;;
21733;SDS011;11029;47.820;10.534;2023-07-02T09:22:13;21.30;;;11.90;;
21733;SDS011;11029;47.820;10.534;2023-07-02T09:24:42;20.02;;;11.82;;
21733;SDS011;11029;47.820;10.534;2023-07-02T09:27:19;22.20;;;11.98;;
21733;SDS011;11029;47.820;10.534;2023-07-02T09:29:50;22.63;;;11.77;;
21733;SDS011;11029;47.820;10.534;2023-07-02T09:32:26;17.88;;;11.63;;
21733;SDS011;11029;47.820;10.534;2023-07-02T09:34:57;23.08;;;11.38;;
21733;SDS011;11029;47.820;10.534;2023-07-02T09:37:24;21.13;;;11.20;;
21733;SDS011;11029;47.820;10.534;2023-07-02T09:39:51;21.52;;;11.25;;
21733;SDS011;11029;47.820;10.534;2023-07-02T09:42:20;21.40;;;11.30;;
21733;SDS011;11029;47.820;10.534;2023-07-02T09:44:48;19.75;;;10.95;;
21733;SDS011;11029;47.820;10.534;2023-07-02T09:47:19;21.50;;;11.90;;
21733;SDS011;11029;47.820;10.534;2023-07-02T09:49:54;21.02;;;12.65;;
21733;SDS011;11029;47.820;10.534;2023-07-02T09:52:26;22.40;;;11.80;;
21733;SDS011;11029;47.820;10.534;2023-07-02T09:54:53;22.48;;;12.40;;
21733;SDS011;11029;47.820;10.534;2023-07-02T09:57:20;18.75;;;11.05;;
21733;SDS011;11029;47.820;10.534;2023-07-02T09:59:47;19.38;;;12.23;;
21733;SDS011;11029;47.820;10.534;2023-07-02T10:02:15;22.80;;;12.63;;
21733;SDS011;11029;47.820;10.534;2023-07-02T10:04:45;25.75;;;11.48;;
21733;SDS011;11029;47.820;10.534;2023-07-02T10:07:25;23.40;;;13.17;;
21733;SDS011;11029;47.820;10.534;2023-07-02T10:09:56;25.42;;;10.93;;
21733;SDS011;11029;47.820;10.534;2023-07-02T10:12:23;20.35;;;11.75;;
21733;SDS011;11029;47.820;10.534;2023-07-02T10:14:52;18.10;;;11.80;;
21733;SDS011;11029;47.820;10.534;2023-07-02T10:17:33;22.03;;;12.53;;
21733;SDS011;11029;47.820;10.534;2023-07-02T10:22:46;24.88;;;11.75;;
21733;SDS011;11029;47.820;10.534;2023-07-02T10:27:52;19.95;;;11.73;;
21733;SDS011;11029;47.820;10.534;2023-07-02T10:30:29;21.70;;;11.93;;
21733;SDS011;11029;47.820;10.534;2023-07-02T10:33:18;18.67;;;11.25;;
21733;SDS011;11029;47.820;10.534;2023-07-02T10:35:45;24.48;;;11.82;;
21733;SDS011;11029;47.820;10.534;2023-07-02T10:38:18;21.75;;;12.48;;
21733;SDS011;11029;47.820;10.534;2023-07-02T10:40:45;20.17;;;11.27;;
21733;SDS011;11029;47.820;10.534;2023-07-02T10:43:12;21.67;;;11.82;;
21733;SDS011;11029;47.820;10.534;2023-07-02T10:45:39;19.02;;;11.30;;
21733;SDS011;11029;47.820;10.534;2023-07-02T10:48:09;18.15;;;12.15;;
21733;SDS011;11029;47.820;10.534;2023-07-02T10:50:36;18.83;;;11.10;;
21733;SDS011;11029;47.820;10.534;2023-07-02T10:53:03;18.95;;;11.43;;
21733;SDS011;11029;47.820;10.534;2023-07-02T10:55:30;22.85;;;11.35;;
21733;SDS011;11029;47.820;10.534;2023-07-02T10:58:04;19.85;;;11.50;;
21733;SDS011;11029;47.820;10.534;2023-07-02T11:00:51;17.13;;;10.75;;
21733;SDS011;11029;47.820;10.534;2023-07-02T11:03:18;19.60;;;11.65;;
21733;SDS011;11029;47.820;10.534;2023-07-02T11:05:46;23.13;;;11.93;;
21733;SDS011;11029;47.820;10.534;2023-07-02T11:08:15;22.85;;;12.65;;
21733;SDS011;11029;47.820;10.534;2023-07-02T11:10:42;21.67;;;12.23;;
21733;SDS011;11029;47.820;10.534;2023-07-02T11:13:13;21.90;;;12.13;;
21733;SDS011;11029;47.820;10.534;2023-07-02T11:15:44;21.42;;;11.75;;
21733;SDS011;11029;47.820;10.534;2023-07-02T11:18:16;20.08;;;11.00;;
21733;SDS011;11029;47.820;10.534;2023-07-02T11:20:46;20.40;;;12.43;;
21733;SDS011;11029;47.820;10.534;2023-07-02T11:23:17;19.77;;;11.95;;
21733;SDS011;11029;47.820;10.534;2023-07-02T11:25:57;18.70;;;11.68;;
21733;SDS011;11029;47.820;10.534;2023-07-02T11:28:25;18.95;;;12.43;;
21733;SDS011;11029;47.820;10.534;2023-07-02T11:30:53;19.30;;;11.02;;
21733;SDS011;11029;47.820;10.534;2023-07-02T11:33:32;19.42;;;11.27;;
21733;SDS011;11029;47.820;10.534;2023-07-02T11:35:58;17.42;;;11.32;;
21733;SDS011;11029;47.820;10.534;2023-07-02T11:38:25;21.00;;;11.65;;
21733;SDS011;11029;47.820;10.534;2023-07-02T11:40:52;19.77;;;11.88;;
21733;SDS011;11029;47.820;10.534;2023-07-02T11:43:19;18.73;;;11.48;;
21733;SDS011;11029;47.820;10.534;2023-07-02T11:45:46;18.77;;;11.55;;
21733;SDS011;11029;47.820;10.534;2023-07-02T11:48:13;20.52;;;10.50;;
21733;SDS011;11029;47.820;10.534;2023-07-02T11:50:40;18.75;;;10.57;;
21733;SDS011;11029;47.820;10.534;2023-07-02T11:53:07;20.33;;;10.52;;
21733;SDS011;11029;47.820;10.534;2023-07-02T11:55:33;20.85;;;9.75;;
21733;SDS011;11029;47.820;10.534;2023-07-02T11:58:00;17.35;;;10.13;;
21733;SDS011;11029;47.820;10.534;2023-07-02T12:00:27;17.88;;;9.90;;
21733;SDS011;11029;47.820;10.534;2023-07-02T12:02:54;17.58;;;10.80;;
21733;SDS011;11029;47.820;10.534;2023-07-02T12:05:21;18.85;;;10.23;;
21733;SDS011;11029;47.820;10.534;2023-07-02T12:07:48;19.67;;;9.45;;
21733;SDS011;11029;47.820;10.534;2023-07-02T12:10:16;15.45;;;9.63;;
21733;SDS011;11029;47.820;10.534;2023-07-02T12:12:42;12.50;;;8.48;;
21733;SDS011;11029;47.820;10.534;2023-07-02T12:15:09;12.65;;;8.70;;
21733;SDS011;11029;47.820;10.534;2023-07-02T12:17:36;14.30;;;8.40;;
21733;SDS011;11029;47.820;10.534;2023-07-02T12:20:03;12.68;;;8.48;;
21733;SDS011;11029;47.820;10.534;2023-07-02T12:22:31;11.27;;;7.57;;
21733;SDS011;11029;47.820;10.534;2023-07-02T12:24:58;12.40;;;7.95;;
21733;SDS011;11029;47.820;10.534;2023-07-02T12:27:26;13.73;;;8.35;;
21733;SDS011;11029;47.820;10.534;2023-07-02T12:29:53;12.35;;;8.00;;
21733;SDS011;11029;47.820;10.534;2023-07-02T12:32:20;16.42;;;8.07;;
21733;SDS011;11029;47.820;10.534;2023-07-02T12:34:47;15.90;;;8.90;;
21733;SDS011;11029;47.820;10.534;2023-07-02T12:37:14;14.75;;;9.40;;
21733;SDS011;11029;47.820;10.534;2023-07-02T12:41:35;12.93;;;7.93;;
21733;SDS011;11029;47.820;10.534;2023-07-02T12:44:02;11.07;;;7.07;;
21733;SDS011;11029;47.820;10.534;2023-07-02T12:46:29;13.13;;;7.68;;
21733;SDS011;11029;47.820;10.534;2023-07-02T12:48:56;14.27;;;8.40;;
21733;SDS011;11029;47.820;10.534;2023-07-02T12:51:23;15.38;;;8.65;;
21733;SDS011;11029;47.820;10.534;2023-07-02T12:53:50;13.25;;;7.60;;
21733;SDS011;11029;47.820;10.534;2023-07-02T12:56:17;10.50;;;7.43;;
21733;SDS011;11029;47.820;10.534;2023-07-02T12:58:44;11.23;;;6.90;;
21733;SDS011;11029;47.820;10.534;2023-07-02T13:01:10;12.15;;;7.30;;
21733;SDS011;11029;47.820;10.534;2023-07-02T13:03:37;12.02;;;7.47;;
21733;SDS011;11029;47.820;10.534;2023-07-02T13:06:04;11.38;;;7.53;;
21733;SDS011;11029;47.820;10.534;2023-07-02T13:08:31;11.55;;;7.82;;
21733;SDS011;11029;47.820;10.534;2023-07-02T13:10:57;9.68;;;6.90;;
21733;SDS011;11029;47.820;10.534;2023-07-02T13:13:24;8.68;;;5.97;;
21733;SDS011;11029;47.820;10.534;2023-07-02T13:15:55;12.60;;;7.53;;
21733;SDS011;11029;47.820;10.534;2023-07-02T13:18:21;11.52;;;6.53;;
21733;SDS011;11029;47.820;10.534;2023-07-02T13:20:48;10.98;;;7.00;;
21733;SDS011;11029;47.820;10.534;2023-07-02T13:23:15;10.93;;;6.60;;
21733;SDS011;11029;47.820;10.534;2023-07-02T13:25:42;9.43;;;6.20;;
21733;SDS011;11029;47.820;10.534;2023-07-02T13:28:09;10.45;;;5.70;;
21733;SDS011;11029;47.820;10.534;2023-07-02T13:30:35;9.68;;;5.80;;
21733;SDS011;11029;47.820;10.534;2023-07-02T13:33:02;7.05;;;5.55;;
21733;SDS011;11029;47.820;10.534;2023-07-02T13:35:29;10.00;;;5.80;;
21733;SDS011;11029;47.820;10.534;2023-07-02T13:37:57;10.18;;;6.55;;
21733;SDS011;11029;47.820;10.534;2023-07-02T13:40:25;9.73;;;6.35;;
21733;SDS011;11029;47.820;10.534;2023-07-02T13:42:52;13.00;;;6.07;;
21733;SDS011;11029;47.820;10.534;2023-07-02T13:45:19;10.43;;;6.68;;
21733;SDS011;11029;47.820;10.534;2023-07-02T13:47:45;10.25;;;6.63;;
21733;SDS011;11029;47.820;10.534;2023-07-02T13:50:12;11.88;;;6.78;;
21733;SDS011;11029;47.820;10.534;2023-07-02T13:52:39;11.48;;;6.72;;
21733;SDS011;11029;47.820;10.534;2023-07-02T13:55:06;9.57;;;6.30;;
21733;SDS011;11029;47.820;10.534;2023-07-02T13:57:33;9.35;;;5.85;;
21733;SDS011;11029;47.820;10.534;2023-07-02T14:00:00;13.05;;;6.40;;
21733;SDS011;11029;47.820;10.534;2023-07-02T14:02:27;10.07;;;6.80;;
21733;SDS011;11029;47.820;10.534;2023-07-02T14:04:53;11.95;;;7.13;;
21733;SDS011;11029;47.820;10.534;2023-07-02T14:07:23;11.82;;;7.25;;
21733;SDS011;11029;47.820;10.534;2023-07-02T14:09:50;10.93;;;7.05;;
21733;SDS011;11029;47.820;10.534;2023-07-02T14:12:17;9.50;;;6.68;;
21733;SDS011;11029;47.820;10.534;2023-07-02T14:14:43;11.23;;;6.68;;
21733;SDS011;11029;47.820;10.534;2023-07-02T14:17:12;9.45;;;6.72;;
21733;SDS011;11029;47.820;10.534;2023-07-02T14:19:39;8.88;;;6.43;;
21733;SDS011;11029;47.820;10.534;2023-07-02T14:22:06;8.80;;;6.10;;
21733;SDS011;11029;47.820;10.534;2023-07-02T14:24:33;11.27;;;7.68;;
21733;SDS011;11029;47.820;10.534;2023-07-02T14:27:00;10.73;;;6.90;;
21733;SDS011;11029;47.820;10.534;2023-07-02T14:29:27;9.55;;;6.47;;
21733;SDS011;11029;47.820;10.534;2023-07-02T14:31:54;9.90;;;6.63;;
21733;SDS011;11029;47.820;10.534;2023-07-02T14:34:21;8.90;;;6.75;;
21733;SDS011;11029;47.820;10.534;2023-07-02T14:36:47;13.40;;;7.35;;
21733;SDS011;11029;47.820;10.534;2023-07-02T14:39:14;8.70;;;6.30;;